sensor_id;sensor_type;location;lat;lon;timestamp;P1;durP1;ratioP1;P2;durP2;ratioP2
10711;SDS011;5407;51.234;6.804;2023-02-18T00:02:12;2.17;;;1.30;;
10711;SDS011;5407;51.234;6.804;2023-02-18T00:04:39;1.50;;;1.40;;
10711;SDS011;5407;51.234;6.804;2023-02-18T00:07:06;1.45;;;1.30;;
10711;SDS011;5407;51.234;6.804;2023-02-18T00:09:33;1.15;;;1.15;;
10711;SDS011;5407;51.234;6.804;2023-02-18T00:12:00;1.92;;;1.63;;
10711;SDS011;5407;51.234;6.804;2023-02-18T00:14:27;1.50;;;1.40;;
10711;SDS011;5407;51.234;6.804;2023-02-18T00:16:55;1.20;;;1.10;;
10711;SDS011;5407;51.234;6.804;2023-02-18T00:19:22;4.65;;;1.48;;
10711;SDS011;5407;51.234;6.804;2023-02-18T00:21:49;1.85;;;1.73;;
10711;SDS011;5407;51.234;6.804;2023-02-18T00:24:15;1.58;;;1.48;;
10711;SDS011;5407;51.234;6.804;2023-02-18T00:26:43;1.80;;;1.40;;
10711;SDS011;5407;51.234;6.804;2023-02-18T00:29:10;1.45;;;1.35;;
10711;SDS011;5407;51.234;6.804;2023-02-18T00:31:38;1.63;;;1.52;;
10711;SDS011;5407;51.234;6.804;2023-02-18T00:34:08;2.13;;;1.42;;
10711;SDS011;5407;51.234;6.804;2023-02-18T00:36:37;1.70;;;1.60;;
10711;SDS011;5407;51.234;6.804;2023-02-18T00:39:05;1.60;;;1.50;;
10711;SDS011;5407;51.234;6.804;2023-02-18T00:41:34;1.58;;;1.48;;
10711;SDS011;5407;51.234;6.804;2023-02-18T00:44:01;1.38;;;1.27;;
10711;SDS011;5407;51.234;6.804;2023-02-18T00:46:28;1.60;;;1.50;;
10711;SDS011;5407;51.234;6.804;2023-02-18T00:48:55;1.52;;;1.42;;
10711;SDS011;5407;51.234;6.804;2023-02-18T00:51:24;1.52;;;1.42;;
10711;SDS011;5407;51.234;6.804;2023-02-18T00:53:51;1.73;;;1.58;;
10711;SDS011;5407;51.234;6.804;2023-02-18T00:56:18;1.58;;;1.48;;
10711;SDS011;5407;51.234;6.804;2023-02-18T00:58:45;1.60;;;1.50;;
10711;SDS011;5407;51.234;6.804;2023-02-18T01:01:12;1.63;;;1.52;;
10711;SDS011;5407;51.234;6.804;2023-02-18T01:03:40;1.38;;;1.27;;
10711;SDS011;5407;51.234;6.804;2023-02-18T01:06:08;1.98;;;1.88;;
10711;SDS011;5407;51.234;6.804;2023-02-18T01:08:38;1.70;;;1.60;;
10711;SDS011;5407;51.234;6.804;2023-02-18T01:11:06;1.92;;;1.70;;
10711;SDS011;5407;51.234;6.804;2023-02-18T01:13:34;2.13;;;1.52;;
10711;SDS011;5407;51.234;6.804;2023-02-18T01:16:04;1.60;;;1.50;;
10711;SDS011;5407;51.234;6.804;2023-02-18T01:18:32;1.95;;;1.85;;
10711;SDS011;5407;51.234;6.804;2023-02-18T01:20:58;3.38;;;2.13;;
10711;SDS011;5407;51.234;6.804;2023-02-18T01:23:26;2.08;;;1.98;;
10711;SDS011;5407;51.234;6.804;2023-02-18T01:25:54;5.28;;;4.85;;
10711;SDS011;5407;51.234;6.804;2023-02-18T01:28:23;6.10;;;5.60;;
10711;SDS011;5407;51.234;6.804;2023-02-18T01:30:50;5.28;;;4.78;;
10711;SDS011;5407;51.234;6.804;2023-02-18T01:33:17;5.10;;;4.70;;
10711;SDS011;5407;51.234;6.804;2023-02-18T01:35:44;5.13;;;4.72;;
10711;SDS011;5407;51.234;6.804;2023-02-18T01:38:11;5.60;;;5.10;;
10711;SDS011;5407;51.234;6.804;2023-02-18T01:40:43;5.38;;;4.85;;
10711;SDS011;5407;51.234;6.804;2023-02-18T01:43:14;4.45;;;4.05;;
10711;SDS011;5407;51.234;6.804;2023-02-18T01:48:09;4.43;;;4.05;;
10711;SDS011;5407;51.234;6.804;2023-02-18T01:50:39;4.25;;;3.95;;
10711;SDS011;5407;51.234;6.804;2023-02-18T01:53:09;5.30;;;4.13;;
10711;SDS011;5407;51.234;6.804;2023-02-18T01:55:37;4.63;;;4.22;;
10711;SDS011;5407;51.234;6.804;2023-02-18T01:58:04;4.90;;;4.50;;
10711;SDS011;5407;51.234;6.804;2023-02-18T02:00:33;4.70;;;4.30;;
10711;SDS011;5407;51.234;6.804;2023-02-18T02:03:01;4.55;;;4.15;;
10711;SDS011;5407;51.234;6.804;2023-02-18T02:05:29;4.63;;;4.00;;
10711;SDS011;5407;51.234;6.804;2023-02-18T02:07:57;3.60;;;3.30;;
10711;SDS011;5407;51.234;6.804;2023-02-18T02:10:30;3.88;;;3.38;;
10711;SDS011;5407;51.234;6.804;2023-02-18T02:13:09;2.80;;;2.60;;
10711;SDS011;5407;51.234;6.804;2023-02-18T02:15:48;2.88;;;2.67;;
10711;SDS011;5407;51.234;6.804;2023-02-18T02:18:35;2.92;;;2.63;;
10711;SDS011;5407;51.234;6.804;2023-02-18T02:27:20;2.40;;;2.17;;
10711;SDS011;5407;51.234;6.804;2023-02-18T02:30:08;2.58;;;2.33;;
10711;SDS011;5407;51.234;6.804;2023-02-18T02:33:04;2.50;;;2.30;;
10711;SDS011;5407;51.234;6.804;2023-02-18T02:36:02;2.47;;;2.08;;
10711;SDS011;5407;51.234;6.804;2023-02-18T02:38:37;1.90;;;1.80;;
10711;SDS011;5407;51.234;6.804;2023-02-18T02:41:12;7.05;;;1.80;;
10711;SDS011;5407;51.234;6.804;2023-02-18T02:43:50;1.80;;;1.70;;
10711;SDS011;5407;51.234;6.804;2023-02-18T02:46:22;3.38;;;1.90;;
10711;SDS011;5407;51.234;6.804;2023-02-18T02:48:57;1.67;;;1.58;;
10711;SDS011;5407;51.234;6.804;2023-02-18T02:51:31;1.70;;;1.60;;
10711;SDS011;5407;51.234;6.804;2023-02-18T02:54:11;1.80;;;1.70;;
10711;SDS011;5407;51.234;6.804;2023-02-18T02:56:39;1.80;;;1.70;;
10711;SDS011;5407;51.234;6.804;2023-02-18T02:59:08;1.92;;;1.83;;
10711;SDS011;5407;51.234;6.804;2023-02-18T03:01:41;1.63;;;1.52;;
10711;SDS011;5407;51.234;6.804;2023-02-18T03:04:25;3.35;;;1.75;;
10711;SDS011;5407;51.234;6.804;2023-02-18T03:07:15;1.80;;;1.70;;
10711;SDS011;5407;51.234;6.804;2023-02-18T03:10:05;1.80;;;1.70;;
10711;SDS011;5407;51.234;6.804;2023-02-18T03:12:47;1.70;;;1.60;;
10711;SDS011;5407;51.234;6.804;2023-02-18T03:15:27;1.80;;;1.55;;
10711;SDS011;5407;51.234;6.804;2023-02-18T03:18:03;1.60;;;1.50;;
10711;SDS011;5407;51.234;6.804;2023-02-18T03:20:40;1.50;;;1.40;;
10711;SDS011;5407;51.234;6.804;2023-02-18T03:23:14;1.73;;;1.63;;
10711;SDS011;5407;51.234;6.804;2023-02-18T03:25:44;1.70;;;1.60;;
10711;SDS011;5407;51.234;6.804;2023-02-18T03:28:12;1.67;;;1.58;;
10711;SDS011;5407;51.234;6.804;2023-02-18T03:30:43;1.80;;;1.70;;
10711;SDS011;5407;51.234;6.804;2023-02-18T03:33:15;12.82;;;1.90;;
10711;SDS011;5407;51.234;6.804;2023-02-18T03:35:45;1.77;;;1.60;;
10711;SDS011;5407;51.234;6.804;2023-02-18T03:38:16;3.30;;;1.60;;
10711;SDS011;5407;51.234;6.804;2023-02-18T03:40:47;1.70;;;1.60;;
10711;SDS011;5407;51.234;6.804;2023-02-18T03:43:15;1.90;;;1.80;;
10711;SDS011;5407;51.234;6.804;2023-02-18T03:45:42;1.40;;;1.30;;
10711;SDS011;5407;51.234;6.804;2023-02-18T03:48:09;1.50;;;1.40;;
10711;SDS011;5407;51.234;6.804;2023-02-18T03:50:36;1.63;;;1.52;;
10711;SDS011;5407;51.234;6.804;2023-02-18T03:53:03;1.88;;;1.40;;
10711;SDS011;5407;51.234;6.804;2023-02-18T03:55:31;1.50;;;1.40;;
10711;SDS011;5407;51.234;6.804;2023-02-18T03:57:58;1.50;;;1.40;;
10711;SDS011;5407;51.234;6.804;2023-02-18T04:00:25;1.42;;;1.33;;
10711;SDS011;5407;51.234;6.804;2023-02-18T04:02:52;1.63;;;1.45;;
10711;SDS011;5407;51.234;6.804;2023-02-18T04:05:19;1.50;;;1.40;;
10711;SDS011;5407;51.234;6.804;2023-02-18T04:07:45;1.58;;;1.48;;
10711;SDS011;5407;51.234;6.804;2023-02-18T04:10:12;1.48;;;1.38;;
10711;SDS011;5407;51.234;6.804;2023-02-18T04:12:41;1.42;;;1.33;;
10711;SDS011;5407;51.234;6.804;2023-02-18T04:15:08;1.40;;;1.30;;
10711;SDS011;5407;51.234;6.804;2023-02-18T04:17:35;1.40;;;1.30;;
10711;SDS011;5407;51.234;6.804;2023-02-18T04:20:02;1.10;;;1.10;;
10711;SDS011;5407;51.234;6.804;2023-02-18T04:22:29;1.30;;;1.20;;
10711;SDS011;5407;51.234;6.804;2023-02-18T04:24:56;1.00;;;1.00;;
10711;SDS011;5407;51.234;6.804;2023-02-18T04:27:23;1.40;;;1.30;;
10711;SDS011;5407;51.234;6.804;2023-02-18T04:29:51;1.40;;;1.30;;
10711;SDS011;5407;51.234;6.804;2023-02-18T04:32:18;1.00;;;0.95;;
10711;SDS011;5407;51.234;6.804;2023-02-18T04:34:45;1.00;;;1.00;;
10711;SDS011;5407;51.234;6.804;2023-02-18T04:37:12;0.95;;;0.95;;
10711;SDS011;5407;51.234;6.804;2023-02-18T04:39:39;1.00;;;1.00;;
10711;SDS011;5407;51.234;6.804;2023-02-18T04:42:06;1.30;;;1.20;;
10711;SDS011;5407;51.234;6.804;2023-02-18T04:44:34;1.10;;;1.10;;
10711;SDS011;5407;51.234;6.804;2023-02-18T04:47:03;0.90;;;0.90;;
10711;SDS011;5407;51.234;6.804;2023-02-18T04:49:30;0.90;;;0.90;;
10711;SDS011;5407;51.234;6.804;2023-02-18T04:51:57;1.20;;;1.00;;
10711;SDS011;5407;51.234;6.804;2023-02-18T04:54:24;0.98;;;0.98;;
10711;SDS011;5407;51.234;6.804;2023-02-18T04:56:51;1.15;;;1.08;;
10711;SDS011;5407;51.234;6.804;2023-02-18T04:59:18;0.70;;;0.70;;
10711;SDS011;5407;51.234;6.804;2023-02-18T05:01:44;0.88;;;0.88;;
10711;SDS011;5407;51.234;6.804;2023-02-18T05:04:13;0.80;;;0.80;;
10711;SDS011;5407;51.234;6.804;2023-02-18T05:06:41;1.05;;;0.95;;
10711;SDS011;5407;51.234;6.804;2023-02-18T05:09:08;0.68;;;0.68;;
10711;SDS011;5407;51.234;6.804;2023-02-18T05:11:35;0.80;;;0.80;;
10711;SDS011;5407;51.234;6.804;2023-02-18T05:14:02;0.70;;;0.70;;
10711;SDS011;5407;51.234;6.804;2023-02-18T05:16:29;0.70;;;0.70;;
10711;SDS011;5407;51.234;6.804;2023-02-18T05:18:56;0.70;;;0.70;;
10711;SDS011;5407;51.234;6.804;2023-02-18T05:21:24;0.80;;;0.80;;
10711;SDS011;5407;51.234;6.804;2023-02-18T05:23:51;0.70;;;0.70;;
10711;SDS011;5407;51.234;6.804;2023-02-18T05:26:18;0.80;;;0.80;;
10711;SDS011;5407;51.234;6.804;2023-02-18T05:28:45;0.70;;;0.70;;
10711;SDS011;5407;51.234;6.804;2023-02-18T05:31:12;0.70;;;0.70;;
10711;SDS011;5407;51.234;6.804;2023-02-18T05:33:39;0.70;;;0.70;;
10711;SDS011;5407;51.234;6.804;2023-02-18T05:36:06;0.90;;;0.90;;
10711;SDS011;5407;51.234;6.804;2023-02-18T05:38:34;0.77;;;0.77;;
10711;SDS011;5407;51.234;6.804;2023-02-18T05:41:01;0.50;;;0.50;;
10711;SDS011;5407;51.234;6.804;2023-02-18T05:43:28;0.60;;;0.60;;
10711;SDS011;5407;51.234;6.804;2023-02-18T05:45:55;0.70;;;0.70;;
10711;SDS011;5407;51.234;6.804;2023-02-18T05:48:22;0.70;;;0.70;;
10711;SDS011;5407;51.234;6.804;2023-02-18T05:50:49;0.60;;;0.60;;
10711;SDS011;5407;51.234;6.804;2023-02-18T05:53:18;0.65;;;0.65;;
10711;SDS011;5407;51.234;6.804;2023-02-18T05:55:46;0.55;;;0.55;;
10711;SDS011;5407;51.234;6.804;2023-02-18T05:58:13;0.60;;;0.60;;
10711;SDS011;5407;51.234;6.804;2023-02-18T06:00:41;0.70;;;0.70;;
10711;SDS011;5407;51.234;6.804;2023-02-18T06:03:08;0.65;;;0.65;;
10711;SDS011;5407;51.234;6.804;2023-02-18T06:05:35;0.65;;;0.65;;
10711;SDS011;5407;51.234;6.804;2023-02-18T06:08:01;0.75;;;0.75;;
10711;SDS011;5407;51.234;6.804;2023-02-18T06:10:29;0.50;;;0.50;;
10711;SDS011;5407;51.234;6.804;2023-02-18T06:12:57;0.57;;;0.57;;
10711;SDS011;5407;51.234;6.804;2023-02-18T06:15:25;0.75;;;0.75;;
10711;SDS011;5407;51.234;6.804;2023-02-18T06:20:46;0.60;;;0.60;;
10711;SDS011;5407;51.234;6.804;2023-02-18T06:23:14;1.30;;;0.77;;
10711;SDS011;5407;51.234;6.804;2023-02-18T06:25:41;0.60;;;0.60;;
10711;SDS011;5407;51.234;6.804;2023-02-18T06:28:10;0.60;;;0.60;;
10711;SDS011;5407;51.234;6.804;2023-02-18T06:30:37;0.68;;;0.68;;
10711;SDS011;5407;51.234;6.804;2023-02-18T06:33:04;0.60;;;0.60;;
10711;SDS011;5407;51.234;6.804;2023-02-18T06:35:31;0.50;;;0.50;;
10711;SDS011;5407;51.234;6.804;2023-02-18T06:37:59;0.60;;;0.60;;
10711;SDS011;5407;51.234;6.804;2023-02-18T06:40:26;0.60;;;0.60;;
10711;SDS011;5407;51.234;6.804;2023-02-18T06:42:53;0.50;;;0.50;;
10711;SDS011;5407;51.234;6.804;2023-02-18T06:45:21;0.60;;;0.60;;
10711;SDS011;5407;51.234;6.804;2023-02-18T06:47:48;0.60;;;0.60;;
10711;SDS011;5407;51.234;6.804;2023-02-18T06:50:15;0.65;;;0.65;;
10711;SDS011;5407;51.234;6.804;2023-02-18T06:52:43;0.60;;;0.60;;
10711;SDS011;5407;51.234;6.804;2023-02-18T06:55:11;0.60;;;0.60;;
10711;SDS011;5407;51.234;6.804;2023-02-18T06:57:38;0.70;;;0.70;;
10711;SDS011;5407;51.234;6.804;2023-02-18T07:00:05;0.60;;;0.60;;
10711;SDS011;5407;51.234;6.804;2023-02-18T07:05:02;0.70;;;0.70;;
10711;SDS011;5407;51.234;6.804;2023-02-18T07:07:29;0.60;;;0.60;;
10711;SDS011;5407;51.234;6.804;2023-02-18T07:09:56;0.60;;;0.60;;
10711;SDS011;5407;51.234;6.804;2023-02-18T07:12:23;0.80;;;0.60;;
10711;SDS011;5407;51.234;6.804;2023-02-18T07:14:50;0.60;;;0.60;;
10711;SDS011;5407;51.234;6.804;2023-02-18T07:17:17;0.73;;;0.73;;
10711;SDS011;5407;51.234;6.804;2023-02-18T07:19:45;0.65;;;0.65;;
10711;SDS011;5407;51.234;6.804;2023-02-18T07:22:12;0.40;;;0.40;;
10711;SDS011;5407;51.234;6.804;2023-02-18T07:24:39;0.45;;;0.45;;
10711;SDS011;5407;51.234;6.804;2023-02-18T07:27:06;0.70;;;0.70;;
10711;SDS011;5407;51.234;6.804;2023-02-18T07:29:33;0.50;;;0.50;;
10711;SDS011;5407;51.234;6.804;2023-02-18T07:32:00;0.57;;;0.57;;
10711;SDS011;5407;51.234;6.804;2023-02-18T07:34:27;0.60;;;0.60;;
10711;SDS011;5407;51.234;6.804;2023-02-18T07:36:55;1.85;;;0.70;;
10711;SDS011;5407;51.234;6.804;2023-02-18T07:39:22;0.60;;;0.60;;
10711;SDS011;5407;51.234;6.804;2023-02-18T07:41:48;0.77;;;0.63;;
10711;SDS011;5407;51.234;6.804;2023-02-18T07:44:15;1.88;;;0.52;;
10711;SDS011;5407;51.234;6.804;2023-02-18T07:46:42;0.60;;;0.60;;
10711;SDS011;5407;51.234;6.804;2023-02-18T07:49:09;0.50;;;0.50;;
10711;SDS011;5407;51.234;6.804;2023-02-18T07:51:36;2.67;;;0.70;;
10711;SDS011;5407;51.234;6.804;2023-02-18T07:54:06;0.85;;;0.70;;
10711;SDS011;5407;51.234;6.804;2023-02-18T07:56:33;1.42;;;0.70;;
10711;SDS011;5407;51.234;6.804;2023-02-18T07:59:00;58.78;;;2.22;;
10711;SDS011;5407;51.234;6.804;2023-02-18T08:01:27;0.80;;;0.80;;
10711;SDS011;5407;51.234;6.804;2023-02-18T08:03:54;0.60;;;0.43;;
10711;SDS011;5407;51.234;6.804;2023-02-18T08:06:24;0.57;;;0.57;;
10711;SDS011;5407;51.234;6.804;2023-02-18T08:08:53;0.60;;;0.60;;
10711;SDS011;5407;51.234;6.804;2023-02-18T08:11:21;0.63;;;0.63;;
10711;SDS011;5407;51.234;6.804;2023-02-18T08:13:48;4.45;;;0.68;;
10711;SDS011;5407;51.234;6.804;2023-02-18T08:16:15;0.63;;;0.63;;
10711;SDS011;5407;51.234;6.804;2023-02-18T08:18:42;1.00;;;0.50;;
10711;SDS011;5407;51.234;6.804;2023-02-18T08:21:10;1.08;;;0.75;;
10711;SDS011;5407;51.234;6.804;2023-02-18T08:23:36;0.93;;;0.50;;
10711;SDS011;5407;51.234;6.804;2023-02-18T08:26:04;0.77;;;0.60;;
10711;SDS011;5407;51.234;6.804;2023-02-18T08:28:41;0.50;;;0.50;;
10711;SDS011;5407;51.234;6.804;2023-02-18T08:31:13;0.70;;;0.60;;
10711;SDS011;5407;51.234;6.804;2023-02-18T08:33:42;0.47;;;0.47;;
10711;SDS011;5407;51.234;6.804;2023-02-18T08:36:09;0.40;;;0.40;;
10711;SDS011;5407;51.234;6.804;2023-02-18T08:38:37;0.70;;;0.70;;
10711;SDS011;5407;51.234;6.804;2023-02-18T08:41:05;0.75;;;0.70;;
10711;SDS011;5407;51.234;6.804;2023-02-18T08:43:33;2.30;;;0.70;;
10711;SDS011;5407;51.234;6.804;2023-02-18T08:46:02;0.93;;;0.80;;
10711;SDS011;5407;51.234;6.804;2023-02-18T08:48:29;0.70;;;0.60;;
10711;SDS011;5407;51.234;6.804;2023-02-18T08:50:56;0.93;;;0.80;;
10711;SDS011;5407;51.234;6.804;2023-02-18T08:53:23;1.40;;;0.55;;
10711;SDS011;5407;51.234;6.804;2023-02-18T08:55:50;0.70;;;0.55;;
10711;SDS011;5407;51.234;6.804;2023-02-18T08:58:17;0.70;;;0.70;;
10711;SDS011;5407;51.234;6.804;2023-02-18T09:00:44;0.60;;;0.60;;
10711;SDS011;5407;51.234;6.804;2023-02-18T09:03:13;0.90;;;0.80;;
10711;SDS011;5407;51.234;6.804;2023-02-18T09:05:41;0.80;;;0.80;;
10711;SDS011;5407;51.234;6.804;2023-02-18T09:08:08;1.00;;;0.80;;
10711;SDS011;5407;51.234;6.804;2023-02-18T09:10:35;0.70;;;0.70;;
10711;SDS011;5407;51.234;6.804;2023-02-18T09:13:03;1.23;;;0.90;;
10711;SDS011;5407;51.234;6.804;2023-02-18T09:15:30;1.15;;;0.93;;
10711;SDS011;5407;51.234;6.804;2023-02-18T09:17:57;1.35;;;0.85;;
10711;SDS011;5407;51.234;6.804;2023-02-18T09:20:26;1.23;;;0.63;;
10711;SDS011;5407;51.234;6.804;2023-02-18T09:22:53;1.55;;;0.80;;
10711;SDS011;5407;51.234;6.804;2023-02-18T09:25:20;1.65;;;0.80;;
10711;SDS011;5407;51.234;6.804;2023-02-18T09:27:46;1.15;;;0.65;;
10711;SDS011;5407;51.234;6.804;2023-02-18T09:30:13;2.45;;;1.00;;
10711;SDS011;5407;51.234;6.804;2023-02-18T09:32:40;2.80;;;0.88;;
10711;SDS011;5407;51.234;6.804;2023-02-18T09:35:07;1.85;;;1.02;;
10711;SDS011;5407;51.234;6.804;2023-02-18T09:37:36;4.70;;;0.88;;
10711;SDS011;5407;51.234;6.804;2023-02-18T09:40:04;1.83;;;1.10;;
10711;SDS011;5407;51.234;6.804;2023-02-18T09:42:32;2.85;;;1.10;;
10711;SDS011;5407;51.234;6.804;2023-02-18T09:45:01;1.50;;;1.00;;
10711;SDS011;5407;51.234;6.804;2023-02-18T09:47:32;2.75;;;1.05;;
10711;SDS011;5407;51.234;6.804;2023-02-18T09:50:03;2.78;;;0.98;;
10711;SDS011;5407;51.234;6.804;2023-02-18T09:52:36;1.35;;;1.00;;
10711;SDS011;5407;51.234;6.804;2023-02-18T09:55:18;1.88;;;1.00;;
10711;SDS011;5407;51.234;6.804;2023-02-18T09:57:48;1.83;;;1.05;;
10711;SDS011;5407;51.234;6.804;2023-02-18T10:00:18;1.95;;;0.90;;
10711;SDS011;5407;51.234;6.804;2023-02-18T10:02:49;2.60;;;1.23;;
10711;SDS011;5407;51.234;6.804;2023-02-18T10:05:20;1.08;;;0.85;;
10711;SDS011;5407;51.234;6.804;2023-02-18T10:07:50;3.67;;;1.30;;
10711;SDS011;5407;51.234;6.804;2023-02-18T10:10:24;1.20;;;0.98;;
10711;SDS011;5407;51.234;6.804;2023-02-18T10:13:00;2.40;;;1.15;;
10711;SDS011;5407;51.234;6.804;2023-02-18T10:15:28;1.55;;;1.10;;
10711;SDS011;5407;51.234;6.804;2023-02-18T10:17:57;3.50;;;1.10;;
10711;SDS011;5407;51.234;6.804;2023-02-18T10:20:27;3.40;;;1.30;;
10711;SDS011;5407;51.234;6.804;2023-02-18T10:22:57;6.53;;;2.30;;
10711;SDS011;5407;51.234;6.804;2023-02-18T10:25:27;12.73;;;3.65;;
10711;SDS011;5407;51.234;6.804;2023-02-18T10:27:54;17.48;;;5.30;;
10711;SDS011;5407;51.234;6.804;2023-02-18T10:30:26;23.00;;;6.40;;
10711;SDS011;5407;51.234;6.804;2023-02-18T10:33:00;23.67;;;7.20;;
10711;SDS011;5407;51.234;6.804;2023-02-18T10:35:38;29.17;;;7.80;;
10711;SDS011;5407;51.234;6.804;2023-02-18T10:38:14;27.85;;;8.68;;
10711;SDS011;5407;51.234;6.804;2023-02-18T10:40:51;21.92;;;7.40;;
10711;SDS011;5407;51.234;6.804;2023-02-18T10:43:28;21.40;;;8.82;;
10711;SDS011;5407;51.234;6.804;2023-02-18T10:46:06;23.50;;;10.65;;
10711;SDS011;5407;51.234;6.804;2023-02-18T10:48:46;23.90;;;9.48;;
10711;SDS011;5407;51.234;6.804;2023-02-18T10:51:22;32.13;;;8.98;;
10711;SDS011;5407;51.234;6.804;2023-02-18T10:53:55;21.05;;;8.02;;
10711;SDS011;5407;51.234;6.804;2023-02-18T10:56:32;17.83;;;8.10;;
10711;SDS011;5407;51.234;6.804;2023-02-18T10:59:04;18.55;;;7.38;;
10711;SDS011;5407;51.234;6.804;2023-02-18T11:01:36;17.45;;;6.35;;
10711;SDS011;5407;51.234;6.804;2023-02-18T11:04:04;13.65;;;5.93;;
10711;SDS011;5407;51.234;6.804;2023-02-18T11:06:38;19.38;;;6.25;;
10711;SDS011;5407;51.234;6.804;2023-02-18T11:09:10;13.15;;;5.85;;
10711;SDS011;5407;51.234;6.804;2023-02-18T11:11:51;14.70;;;6.22;;
10711;SDS011;5407;51.234;6.804;2023-02-18T11:14:37;12.18;;;6.05;;
10711;SDS011;5407;51.234;6.804;2023-02-18T11:17:18;15.93;;;6.53;;
10711;SDS011;5407;51.234;6.804;2023-02-18T11:19:51;13.85;;;6.22;;
10711;SDS011;5407;51.234;6.804;2023-02-18T11:22:20;16.40;;;6.72;;
10711;SDS011;5407;51.234;6.804;2023-02-18T11:24:55;12.85;;;5.90;;
10711;SDS011;5407;51.234;6.804;2023-02-18T11:27:24;14.57;;;5.75;;
10711;SDS011;5407;51.234;6.804;2023-02-18T11:29:59;13.18;;;6.18;;
10711;SDS011;5407;51.234;6.804;2023-02-18T11:32:30;13.32;;;5.57;;
10711;SDS011;5407;51.234;6.804;2023-02-18T11:35:01;11.88;;;5.47;;
10711;SDS011;5407;51.234;6.804;2023-02-18T11:37:38;12.40;;;5.70;;
10711;SDS011;5407;51.234;6.804;2023-02-18T11:40:18;11.13;;;5.32;;
10711;SDS011;5407;51.234;6.804;2023-02-18T11:42:46;13.35;;;5.05;;
10711;SDS011;5407;51.234;6.804;2023-02-18T11:45:25;11.38;;;4.82;;
10711;SDS011;5407;51.234;6.804;2023-02-18T11:47:57;10.35;;;4.93;;
10711;SDS011;5407;51.234;6.804;2023-02-18T11:50:25;9.20;;;4.43;;
10711;SDS011;5407;51.234;6.804;2023-02-18T11:52:58;9.77;;;4.43;;
10711;SDS011;5407;51.234;6.804;2023-02-18T11:55:26;8.95;;;6.03;;
10711;SDS011;5407;51.234;6.804;2023-02-18T11:57:56;10.70;;;5.47;;
10711;SDS011;5407;51.234;6.804;2023-02-18T12:00:30;9.18;;;5.35;;
10711;SDS011;5407;51.234;6.804;2023-02-18T12:03:05;8.27;;;4.90;;
10711;SDS011;5407;51.234;6.804;2023-02-18T12:05:40;7.75;;;4.13;;
10711;SDS011;5407;51.234;6.804;2023-02-18T12:08:10;8.25;;;4.25;;
10711;SDS011;5407;51.234;6.804;2023-02-18T12:10:45;12.18;;;4.40;;
10711;SDS011;5407;51.234;6.804;2023-02-18T12:13:19;6.53;;;3.83;;
10711;SDS011;5407;51.234;6.804;2023-02-18T12:15:52;7.78;;;3.70;;
10711;SDS011;5407;51.234;6.804;2023-02-18T12:18:32;7.40;;;4.05;;
10711;SDS011;5407;51.234;6.804;2023-02-18T12:21:15;7.00;;;3.95;;
10711;SDS011;5407;51.234;6.804;2023-02-18T12:23:49;6.50;;;3.53;;
10711;SDS011;5407;51.234;6.804;2023-02-18T12:26:27;7.68;;;3.85;;
10711;SDS011;5407;51.234;6.804;2023-02-18T12:29:12;6.28;;;3.75;;
10711;SDS011;5407;51.234;6.804;2023-02-18T12:31:52;6.63;;;3.60;;
10711;SDS011;5407;51.234;6.804;2023-02-18T12:34:32;5.53;;;3.30;;
10711;SDS011;5407;51.234;6.804;2023-02-18T12:37:12;6.15;;;3.38;;
10711;SDS011;5407;51.234;6.804;2023-02-18T12:40:01;4.43;;;2.90;;
10711;SDS011;5407;51.234;6.804;2023-02-18T12:42:39;6.50;;;3.30;;
10711;SDS011;5407;51.234;6.804;2023-02-18T12:45:25;5.05;;;2.90;;
10711;SDS011;5407;51.234;6.804;2023-02-18T12:48:10;4.53;;;2.80;;
10711;SDS011;5407;51.234;6.804;2023-02-18T12:50:53;4.90;;;2.67;;
10711;SDS011;5407;51.234;6.804;2023-02-18T12:53:37;5.00;;;2.83;;
10711;SDS011;5407;51.234;6.804;2023-02-18T12:56:24;4.82;;;2.80;;
10711;SDS011;5407;51.234;6.804;2023-02-18T12:59:07;4.45;;;2.78;;
10711;SDS011;5407;51.234;6.804;2023-02-18T13:01:44;5.75;;;2.75;;
10711;SDS011;5407;51.234;6.804;2023-02-18T13:04:23;4.13;;;2.55;;
10711;SDS011;5407;51.234;6.804;2023-02-18T13:07:06;3.72;;;2.35;;
10711;SDS011;5407;51.234;6.804;2023-02-18T13:09:52;2.88;;;2.17;;
10711;SDS011;5407;51.234;6.804;2023-02-18T13:12:29;3.15;;;2.20;;
10711;SDS011;5407;51.234;6.804;2023-02-18T13:15:04;3.80;;;2.47;;
10711;SDS011;5407;51.234;6.804;2023-02-18T13:17:39;3.63;;;2.13;;
10711;SDS011;5407;51.234;6.804;2023-02-18T13:20:12;3.75;;;2.30;;
10711;SDS011;5407;51.234;6.804;2023-02-18T13:22:42;3.38;;;2.40;;
10711;SDS011;5407;51.234;6.804;2023-02-18T13:25:10;3.53;;;2.33;;
10711;SDS011;5407;51.234;6.804;2023-02-18T13:27:40;2.60;;;2.30;;
10711;SDS011;5407;51.234;6.804;2023-02-18T13:30:17;2.85;;;1.98;;
10711;SDS011;5407;51.234;6.804;2023-02-18T13:32:56;3.40;;;2.08;;
10711;SDS011;5407;51.234;6.804;2023-02-18T13:35:31;3.47;;;2.50;;
10711;SDS011;5407;51.234;6.804;2023-02-18T13:41:06;4.22;;;2.70;;
10711;SDS011;5407;51.234;6.804;2023-02-18T13:43:34;3.22;;;2.50;;
10711;SDS011;5407;51.234;6.804;2023-02-18T13:46:04;3.35;;;2.45;;
10711;SDS011;5407;51.234;6.804;2023-02-18T13:48:38;3.78;;;2.60;;
10711;SDS011;5407;51.234;6.804;2023-02-18T13:51:10;4.05;;;2.50;;
10711;SDS011;5407;51.234;6.804;2023-02-18T13:53:39;2.53;;;2.22;;
10711;SDS011;5407;51.234;6.804;2023-02-18T13:56:08;2.72;;;2.05;;
10711;SDS011;5407;51.234;6.804;2023-02-18T13:58:48;2.35;;;1.92;;
10711;SDS011;5407;51.234;6.804;2023-02-18T14:01:22;4.15;;;1.90;;
10711;SDS011;5407;51.234;6.804;2023-02-18T14:03:58;3.45;;;2.22;;
10711;SDS011;5407;51.234;6.804;2023-02-18T14:06:27;3.25;;;1.92;;
10711;SDS011;5407;51.234;6.804;2023-02-18T14:12:14;2.83;;;2.08;;
10711;SDS011;5407;51.234;6.804;2023-02-18T14:14:49;2.58;;;2.00;;
10711;SDS011;5407;51.234;6.804;2023-02-18T14:22:56;3.00;;;1.92;;
10711;SDS011;5407;51.234;6.804;2023-02-18T14:25:30;1.90;;;1.70;;
10711;SDS011;5407;51.234;6.804;2023-02-18T14:28:01;2.65;;;1.77;;
10711;SDS011;5407;51.234;6.804;2023-02-18T14:30:41;1.67;;;1.58;;
10711;SDS011;5407;51.234;6.804;2023-02-18T14:33:14;2.92;;;1.70;;
10711;SDS011;5407;51.234;6.804;2023-02-18T14:35:42;2.22;;;1.80;;
10711;SDS011;5407;51.234;6.804;2023-02-18T14:38:17;2.05;;;1.70;;
10711;SDS011;5407;51.234;6.804;2023-02-18T14:41:05;2.33;;;1.70;;
10711;SDS011;5407;51.234;6.804;2023-02-18T14:43:59;1.60;;;1.50;;
10711;SDS011;5407;51.234;6.804;2023-02-18T14:46:39;2.92;;;1.77;;
10711;SDS011;5407;51.234;6.804;2023-02-18T14:49:27;2.72;;;1.92;;
10711;SDS011;5407;51.234;6.804;2023-02-18T14:52:03;1.70;;;1.60;;
10711;SDS011;5407;51.234;6.804;2023-02-18T14:54:37;1.60;;;1.50;;
10711;SDS011;5407;51.234;6.804;2023-02-18T14:57:06;2.50;;;1.90;;
10711;SDS011;5407;51.234;6.804;2023-02-18T14:59:40;1.67;;;1.58;;
10711;SDS011;5407;51.234;6.804;2023-02-18T15:02:14;2.25;;;1.60;;
10711;SDS011;5407;51.234;6.804;2023-02-18T15:04:46;1.60;;;1.48;;
10711;SDS011;5407;51.234;6.804;2023-02-18T15:07:17;1.88;;;1.40;;
10711;SDS011;5407;51.234;6.804;2023-02-18T15:09:45;2.67;;;1.70;;
10711;SDS011;5407;51.234;6.804;2023-02-18T15:12:13;2.67;;;1.55;;
10711;SDS011;5407;51.234;6.804;2023-02-18T15:14:43;4.03;;;1.60;;
10711;SDS011;5407;51.234;6.804;2023-02-18T15:17:13;1.70;;;1.50;;
10711;SDS011;5407;51.234;6.804;2023-02-18T15:19:46;1.48;;;1.30;;
10711;SDS011;5407;51.234;6.804;2023-02-18T15:22:18;1.92;;;1.40;;
10711;SDS011;5407;51.234;6.804;2023-02-18T15:24:47;1.65;;;1.55;;
10711;SDS011;5407;51.234;6.804;2023-02-18T15:27:16;3.33;;;1.48;;
10711;SDS011;5407;51.234;6.804;2023-02-18T15:29:48;2.03;;;1.40;;
10711;SDS011;5407;51.234;6.804;2023-02-18T15:32:16;2.08;;;1.48;;
10711;SDS011;5407;51.234;6.804;2023-02-18T15:34:44;1.95;;;1.40;;
10711;SDS011;5407;51.234;6.804;2023-02-18T15:37:17;1.60;;;1.50;;
10711;SDS011;5407;51.234;6.804;2023-02-18T15:39:44;2.20;;;1.42;;
10711;SDS011;5407;51.234;6.804;2023-02-18T15:42:13;2.03;;;1.45;;
10711;SDS011;5407;51.234;6.804;2023-02-18T15:44:49;1.70;;;1.48;;
10711;SDS011;5407;51.234;6.804;2023-02-18T15:47:18;1.38;;;1.27;;
10711;SDS011;5407;51.234;6.804;2023-02-18T15:49:46;2.50;;;1.30;;